sensor_id;sensor_type;location;lat;lon;timestamp;pressure;altitude;pressure_sealevel;temperature;humidity
55289;BME280;41154;45.394;5.734;2023-07-20T00:05:24;96974.25;;;18.59;100.00
55289;BME280;41154;45.394;5.734;2023-07-20T00:07:50;96981.88;;;18.57;100.00
55289;BME280;41154;45.394;5.734;2023-07-20T00:10:17;96973.72;;;18.57;100.00
55289;BME280;41154;45.394;5.734;2023-07-20T00:12:43;96983.38;;;18.49;100.00
55289;BME280;41154;45.394;5.734;2023-07-20T00:15:13;96977.88;;;18.41;100.00
55289;BME280;41154;45.394;5.734;2023-07-20T00:17:38;96974.34;;;18.54;100.00
55289;BME280;41154;45.394;5.734;2023-07-20T00:20:05;96979.88;;;18.35;100.00
55289;BME280;41154;45.394;5.734;2023-07-20T00:22:32;96977.03;;;18.12;100.00
55289;BME280;41154;45.394;5.734;2023-07-20T00:24:58;96978.50;;;17.91;100.00
55289;BME280;41154;45.394;5.734;2023-07-20T00:27:23;96980.56;;;17.80;100.00
55289;BME280;41154;45.394;5.734;2023-07-20T00:29:49;96980.25;;;17.82;100.00
55289;BME280;41154;45.394;5.734;2023-07-20T00:32:14;96982.69;;;17.83;100.00
55289;BME280;41154;45.394;5.734;2023-07-20T00:34:40;96981.75;;;18.07;100.00
55289;BME280;41154;45.394;5.734;2023-07-20T00:37:08;96984.88;;;18.00;100.00
55289;BME280;41154;45.394;5.734;2023-07-20T00:39:35;96989.56;;;17.94;100.00
55289;BME280;41154;45.394;5.734;2023-07-20T00:42:00;96983.97;;;18.05;100.00
55289;BME280;41154;45.394;5.734;2023-07-20T00:44:26;96991.13;;;18.14;100.00
55289;BME280;41154;45.394;5.734;2023-07-20T00:46:52;96988.88;;;18.03;100.00
55289;BME280;41154;45.394;5.734;2023-07-20T00:49:18;96990.91;;;17.78;100.00
55289;BME280;41154;45.394;5.734;2023-07-20T00:51:46;96983.03;;;17.43;100.00
55289;BME280;41154;45.394;5.734;2023-07-20T00:54:12;96986.25;;;17.46;100.00
55289;BME280;41154;45.394;5.734;2023-07-20T00:56:38;96986.38;;;17.54;100.00
55289;BME280;41154;45.394;5.734;2023-07-20T00:59:04;96970.47;;;17.67;100.00
55289;BME280;41154;45.394;5.734;2023-07-20T01:01:30;96982.88;;;17.54;100.00
55289;BME280;41154;45.394;5.734;2023-07-20T01:03:55;96972.81;;;17.54;100.00
55289;BME280;41154;45.394;5.734;2023-07-20T01:08:57;96974.84;;;17.30;100.00
55289;BME280;41154;45.394;5.734;2023-07-20T01:14:03;96971.13;;;17.06;100.00
55289;BME280;41154;45.394;5.734;2023-07-20T01:16:28;96970.06;;;17.21;100.00
55289;BME280;41154;45.394;5.734;2023-07-20T01:18:54;96972.41;;;17.09;100.00
55289;BME280;41154;45.394;5.734;2023-07-20T01:21:42;96970.38;;;17.20;100.00
55289;BME280;41154;45.394;5.734;2023-07-20T01:29:11;96967.00;;;17.28;100.00
55289;BME280;41154;45.394;5.734;2023-07-20T01:31:43;96967.78;;;17.48;100.00
55289;BME280;41154;45.394;5.734;2023-07-20T01:34:09;96957.06;;;17.23;100.00
55289;BME280;41154;45.394;5.734;2023-07-20T01:36:38;96957.69;;;17.15;100.00
55289;BME280;41154;45.394;5.734;2023-07-20T01:39:03;96961.06;;;17.07;100.00
55289;BME280;41154;45.394;5.734;2023-07-20T01:41:30;96949.38;;;16.68;100.00
55289;BME280;41154;45.394;5.734;2023-07-20T01:43:59;96951.28;;;16.68;100.00
55289;BME280;41154;45.394;5.734;2023-07-20T01:46:25;96954.47;;;16.94;100.00
55289;BME280;41154;45.394;5.734;2023-07-20T01:48:50;96955.50;;;16.98;100.00
55289;BME280;41154;45.394;5.734;2023-07-20T01:51:16;96950.44;;;16.92;100.00
55289;BME280;41154;45.394;5.734;2023-07-20T01:53:44;96942.91;;;16.88;100.00
55289;BME280;41154;45.394;5.734;2023-07-20T01:56:10;96942.22;;;16.97;100.00
55289;BME280;41154;45.394;5.734;2023-07-20T01:58:38;96944.91;;;17.02;100.00
55289;BME280;41154;45.394;5.734;2023-07-20T02:01:04;96950.72;;;17.09;100.00
55289;BME280;41154;45.394;5.734;2023-07-20T02:03:30;96940.75;;;16.85;100.00
55289;BME280;41154;45.394;5.734;2023-07-20T02:05:55;96933.09;;;16.49;100.00
55289;BME280;41154;45.394;5.734;2023-07-20T02:08:22;96945.78;;;16.73;100.00
55289;BME280;41154;45.394;5.734;2023-07-20T02:10:48;96943.56;;;16.99;100.00
55289;BME280;41154;45.394;5.734;2023-07-20T02:13:14;96939.78;;;17.00;100.00
55289;BME280;41154;45.394;5.734;2023-07-20T02:15:39;96936.22;;;17.00;100.00
55289;BME280;41154;45.394;5.734;2023-07-20T02:18:05;96942.53;;;16.95;100.00
55289;BME280;41154;45.394;5.734;2023-07-20T02:20:33;96940.19;;;16.88;100.00
55289;BME280;41154;45.394;5.734;2023-07-20T02:22:58;96939.84;;;17.14;100.00
55289;BME280;41154;45.394;5.734;2023-07-20T02:25:24;96947.59;;;17.02;100.00
55289;BME280;41154;45.394;5.734;2023-07-20T02:27:49;96941.00;;;16.89;100.00
55289;BME280;41154;45.394;5.734;2023-07-20T02:30:15;96941.69;;;16.76;100.00
55289;BME280;41154;45.394;5.734;2023-07-20T02:32:41;96942.09;;;16.64;100.00
55289;BME280;41154;45.394;5.734;2023-07-20T02:35:11;96944.09;;;16.34;100.00
55289;BME280;41154;45.394;5.734;2023-07-20T02:37:36;96943.44;;;16.42;100.00
55289;BME280;41154;45.394;5.734;2023-07-20T02:40:02;96952.78;;;16.55;100.00
55289;BME280;41154;45.394;5.734;2023-07-20T02:42:29;96949.25;;;16.54;100.00
55289;BME280;41154;45.394;5.734;2023-07-20T02:44:55;96947.31;;;16.60;100.00
55289;BME280;41154;45.394;5.734;2023-07-20T02:47:20;96953.31;;;16.33;100.00
55289;BME280;41154;45.394;5.734;2023-07-20T02:49:46;96945.88;;;16.20;100.00
55289;BME280;41154;45.394;5.734;2023-07-20T02:52:12;96956.31;;;16.07;100.00
55289;BME280;41154;45.394;5.734;2023-07-20T02:54:39;96951.53;;;16.23;100.00
55289;BME280;41154;45.394;5.734;2023-07-20T02:57:05;96949.16;;;16.16;100.00
55289;BME280;41154;45.394;5.734;2023-07-20T02:59:30;96950.78;;;16.17;100.00
55289;BME280;41154;45.394;5.734;2023-07-20T03:01:56;96953.09;;;16.05;100.00
55289;BME280;41154;45.394;5.734;2023-07-20T03:04:25;96955.31;;;15.98;100.00
55289;BME280;41154;45.394;5.734;2023-07-20T03:06:51;96945.56;;;15.97;100.00
55289;BME280;41154;45.394;5.734;2023-07-20T03:09:16;96958.25;;;16.02;100.00
55289;BME280;41154;45.394;5.734;2023-07-20T03:11:42;96949.47;;;16.15;100.00
55289;BME280;41154;45.394;5.734;2023-07-20T03:14:08;96947.91;;;16.09;100.00
55289;BME280;41154;45.394;5.734;2023-07-20T03:16:37;96954.66;;;16.11;100.00
55289;BME280;41154;45.394;5.734;2023-07-20T03:19:02;96949.16;;;16.16;100.00
55289;BME280;41154;45.394;5.734;2023-07-20T03:21:29;96949.81;;;16.08;100.00
55289;BME280;41154;45.394;5.734;2023-07-20T03:23:55;96954.09;;;15.85;100.00
55289;BME280;41154;45.394;5.734;2023-07-20T03:26:22;96956.38;;;16.02;100.00
55289;BME280;41154;45.394;5.734;2023-07-20T03:28:48;96959.63;;;15.99;100.00
55289;BME280;41154;45.394;5.734;2023-07-20T03:31:14;96955.13;;;15.89;100.00
55289;BME280;41154;45.394;5.734;2023-07-20T03:33:42;96956.78;;;15.85;100.00
55289;BME280;41154;45.394;5.734;2023-07-20T03:36:07;96957.31;;;15.87;100.00
55289;BME280;41154;45.394;5.734;2023-07-20T03:38:33;96950.47;;;15.95;100.00
55289;BME280;41154;45.394;5.734;2023-07-20T03:40:59;96954.25;;;15.94;100.00
55289;BME280;41154;45.394;5.734;2023-07-20T03:43:26;96960.13;;;15.77;100.00
55289;BME280;41154;45.394;5.734;2023-07-20T03:45:51;96961.31;;;15.60;100.00
55289;BME280;41154;45.394;5.734;2023-07-20T03:48:19;96959.03;;;15.73;100.00
55289;BME280;41154;45.394;5.734;2023-07-20T03:50:45;96951.25;;;15.66;100.00
55289;BME280;41154;45.394;5.734;2023-07-20T03:53:14;96952.13;;;15.91;100.00
55289;BME280;41154;45.394;5.734;2023-07-20T03:55:41;96946.97;;;15.94;100.00
55289;BME280;41154;45.394;5.734;2023-07-20T03:58:07;96945.63;;;15.92;100.00
55289;BME280;41154;45.394;5.734;2023-07-20T04:00:33;96942.13;;;15.91;100.00
55289;BME280;41154;45.394;5.734;2023-07-20T04:02:59;96936.03;;;15.75;100.00
55289;BME280;41154;45.394;5.734;2023-07-20T04:05:25;96941.88;;;15.58;100.00
55289;BME280;41154;45.394;5.734;2023-07-20T04:07:51;96936.03;;;15.46;100.00
55289;BME280;41154;45.394;5.734;2023-07-20T04:10:17;96934.28;;;15.60;100.00
55289;BME280;41154;45.394;5.734;2023-07-20T04:12:42;96947.00;;;15.60;100.00
55289;BME280;41154;45.394;5.734;2023-07-20T04:15:08;96934.06;;;15.52;100.00
55289;BME280;41154;45.394;5.734;2023-07-20T04:17:34;96947.28;;;15.58;100.00
55289;BME280;41154;45.394;5.734;2023-07-20T04:20:00;96944.06;;;15.51;100.00
55289;BME280;41154;45.394;5.734;2023-07-20T04:22:26;96942.59;;;15.64;100.00
55289;BME280;41154;45.394;5.734;2023-07-20T04:24:52;96946.44;;;15.58;100.00
55289;BME280;41154;45.394;5.734;2023-07-20T04:27:18;96944.59;;;15.53;100.00
55289;BME280;41154;45.394;5.734;2023-07-20T04:29:43;96938.19;;;15.73;100.00
55289;BME280;41154;45.394;5.734;2023-07-20T04:32:09;96941.00;;;15.63;100.00
55289;BME280;41154;45.394;5.734;2023-07-20T04:34:37;96937.47;;;15.62;100.00
55289;BME280;41154;45.394;5.734;2023-07-20T04:37:04;96935.91;;;15.56;100.00
55289;BME280;41154;45.394;5.734;2023-07-20T04:39:30;96937.47;;;15.68;100.00
55289;BME280;41154;45.394;5.734;2023-07-20T04:41:57;96943.31;;;15.75;100.00
55289;BME280;41154;45.394;5.734;2023-07-20T04:44:23;96947.44;;;15.67;100.00
55289;BME280;41154;45.394;5.734;2023-07-20T04:46:50;96947.63;;;15.81;100.00
55289;BME280;41154;45.394;5.734;2023-07-20T04:49:15;96954.47;;;15.68;100.00
55289;BME280;41154;45.394;5.734;2023-07-20T04:51:43;96946.44;;;15.63;100.00
55289;BME280;41154;45.394;5.734;2023-07-20T04:54:09;96946.03;;;15.75;100.00
55289;BME280;41154;45.394;5.734;2023-07-20T04:56:37;96948.72;;;15.75;100.00
55289;BME280;41154;45.394;5.734;2023-07-20T04:59:05;96949.72;;;15.89;100.00
55289;BME280;41154;45.394;5.734;2023-07-20T05:01:31;96941.78;;;15.98;100.00
55289;BME280;41154;45.394;5.734;2023-07-20T05:03:56;96947.63;;;15.81;100.00
55289;BME280;41154;45.394;5.734;2023-07-20T05:06:22;96934.94;;;15.76;100.00
55289;BME280;41154;45.394;5.734;2023-07-20T05:08:49;96935.72;;;16.11;100.00
55289;BME280;41154;45.394;5.734;2023-07-20T05:11:15;96938.81;;;16.24;100.00
55289;BME280;41154;45.394;5.734;2023-07-20T05:13:41;96942.66;;;16.42;100.00
55289;BME280;41154;45.394;5.734;2023-07-20T05:16:06;96940.16;;;16.45;100.00
55289;BME280;41154;45.394;5.734;2023-07-20T05:18:33;96934.09;;;17.35;100.00
55289;BME280;41154;45.394;5.734;2023-07-20T05:20:59;96938.63;;;19.48;100.00
55289;BME280;41154;45.394;5.734;2023-07-20T05:23:24;96934.97;;;21.22;100.00
55289;BME280;41154;45.394;5.734;2023-07-20T05:25:56;96938.03;;;21.29;100.00
55289;BME280;41154;45.394;5.734;2023-07-20T05:28:22;96946.59;;;22.10;100.00
55289;BME280;41154;45.394;5.734;2023-07-20T05:30:48;96947.22;;;22.84;95.52
55289;BME280;41154;45.394;5.734;2023-07-20T05:33:14;96944.88;;;22.43;97.98
55289;BME280;41154;45.394;5.734;2023-07-20T05:35:41;96940.44;;;22.90;93.10
55289;BME280;41154;45.394;5.734;2023-07-20T05:38:06;96941.13;;;23.50;90.54
55289;BME280;41154;45.394;5.734;2023-07-20T05:40:32;96938.44;;;23.62;89.78
55289;BME280;41154;45.394;5.734;2023-07-20T05:42:57;96943.31;;;23.57;88.99
55289;BME280;41154;45.394;5.734;2023-07-20T05:45:24;96942.56;;;23.68;89.79
55289;BME280;41154;45.394;5.734;2023-07-20T05:47:49;96949.44;;;24.08;88.95
55289;BME280;41154;45.394;5.734;2023-07-20T05:50:15;96956.00;;;24.53;84.17
55289;BME280;41154;45.394;5.734;2023-07-20T05:52:41;96936.09;;;26.18;74.56
55289;BME280;41154;45.394;5.734;2023-07-20T05:55:06;96932.84;;;25.84;72.75
55289;BME280;41154;45.394;5.734;2023-07-20T05:57:32;96944.47;;;28.03;66.08
55289;BME280;41154;45.394;5.734;2023-07-20T05:59:58;96947.25;;;26.89;66.27
55289;BME280;41154;45.394;5.734;2023-07-20T06:02:24;96940.28;;;26.60;66.61
55289;BME280;41154;45.394;5.734;2023-07-20T06:04:49;96939.28;;;26.84;65.96
55289;BME280;41154;45.394;5.734;2023-07-20T06:07:16;96929.34;;;27.15;65.66
55289;BME280;41154;45.394;5.734;2023-07-20T06:09:41;96940.59;;;29.31;58.34
55289;BME280;41154;45.394;5.734;2023-07-20T06:12:08;96940.41;;;28.63;57.91
55289;BME280;41154;45.394;5.734;2023-07-20T06:14:34;96931.16;;;30.44;53.15
55289;BME280;41154;45.394;5.734;2023-07-20T06:17:01;96930.41;;;28.08;57.87
55289;BME280;41154;45.394;5.734;2023-07-20T06:19:26;96928.28;;;27.78;58.88
55289;BME280;41154;45.394;5.734;2023-07-20T06:21:52;96922.13;;;28.31;57.19
55289;BME280;41154;45.394;5.734;2023-07-20T06:24:18;96923.47;;;28.64;56.29
55289;BME280;41154;45.394;5.734;2023-07-20T06:26:44;96917.03;;;28.83;56.70
55289;BME280;41154;45.394;5.734;2023-07-20T06:29:09;96925.28;;;28.30;57.15
55289;BME280;41154;45.394;5.734;2023-07-20T06:31:35;96916.72;;;28.62;57.02
55289;BME280;41154;45.394;5.734;2023-07-20T06:34:01;96917.81;;;28.34;58.65
55289;BME280;41154;45.394;5.734;2023-07-20T06:36:27;96905.78;;;29.90;53.78
55289;BME280;41154;45.394;5.734;2023-07-20T06:38:52;96905.47;;;29.65;55.82
55289;BME280;41154;45.394;5.734;2023-07-20T06:41:18;96905.63;;;29.15;55.13
55289;BME280;41154;45.394;5.734;2023-07-20T06:43:44;96902.94;;;29.87;53.00
55289;BME280;41154;45.394;5.734;2023-07-20T06:46:09;96909.69;;;29.55;54.00
55289;BME280;41154;45.394;5.734;2023-07-20T06:48:35;96907.56;;;30.17;51.80
55289;BME280;41154;45.394;5.734;2023-07-20T06:51:01;96913.59;;;30.26;51.50
55289;BME280;41154;45.394;5.734;2023-07-20T06:53:26;96912.81;;;30.74;51.63
55289;BME280;41154;45.394;5.734;2023-07-20T06:55:52;96907.94;;;30.11;53.12
55289;BME280;41154;45.394;5.734;2023-07-20T06:58:18;96913.25;;;29.56;55.25
55289;BME280;41154;45.394;5.734;2023-07-20T07:00:44;96915.84;;;30.58;51.41
55289;BME280;41154;45.394;5.734;2023-07-20T07:03:10;96909.34;;;33.30;46.30
55289;BME280;41154;45.394;5.734;2023-07-20T07:05:36;96909.06;;;32.53;45.65
55289;BME280;41154;45.394;5.734;2023-07-20T07:08:03;96901.59;;;34.37;42.71
55289;BME280;41154;45.394;5.734;2023-07-20T07:10:28;96901.28;;;31.31;47.27
55289;BME280;41154;45.394;5.734;2023-07-20T07:12:55;96902.94;;;33.41;43.86
55289;BME280;41154;45.394;5.734;2023-07-20T07:15:21;96901.88;;;31.98;46.44
55289;BME280;41154;45.394;5.734;2023-07-20T07:17:46;96903.84;;;33.02;46.53
55289;BME280;41154;45.394;5.734;2023-07-20T07:20:12;96897.13;;;32.05;47.95
55289;BME280;41154;45.394;5.734;2023-07-20T07:22:39;96903.44;;;35.00;39.23
55289;BME280;41154;45.394;5.734;2023-07-20T07:25:04;96901.59;;;34.83;38.91
55289;BME280;41154;45.394;5.734;2023-07-20T07:27:31;96904.66;;;32.88;42.69
55289;BME280;41154;45.394;5.734;2023-07-20T07:29:57;96896.31;;;31.94;43.82
55289;BME280;41154;45.394;5.734;2023-07-20T07:32:22;96897.53;;;32.90;41.36
55289;BME280;41154;45.394;5.734;2023-07-20T07:34:48;96892.34;;;33.95;41.40
55289;BME280;41154;45.394;5.734;2023-07-20T07:37:14;96897.75;;;35.07;38.15
55289;BME280;41154;45.394;5.734;2023-07-20T07:39:39;96892.13;;;33.57;41.71
55289;BME280;41154;45.394;5.734;2023-07-20T07:42:05;96896.19;;;34.16;42.47
55289;BME280;41154;45.394;5.734;2023-07-20T07:44:31;96897.38;;;34.67;39.52
55289;BME280;41154;45.394;5.734;2023-07-20T07:46:56;96889.31;;;33.72;41.20
55289;BME280;41154;45.394;5.734;2023-07-20T07:49:22;96888.91;;;35.16;38.86
55289;BME280;41154;45.394;5.734;2023-07-20T07:51:47;96885.75;;;34.31;40.36
55289;BME280;41154;45.394;5.734;2023-07-20T07:54:13;96877.19;;;35.32;37.66
55289;BME280;41154;45.394;5.734;2023-07-20T07:56:39;96878.41;;;34.93;39.24
55289;BME280;41154;45.394;5.734;2023-07-20T07:59:06;96883.13;;;33.28;42.33
55289;BME280;41154;45.394;5.734;2023-07-20T08:01:32;96878.50;;;35.55;37.72
55289;BME280;41154;45.394;5.734;2023-07-20T08:03:57;96888.00;;;32.77;40.51
55289;BME280;41154;45.394;5.734;2023-07-20T08:06:23;96879.06;;;34.17;38.54
55289;BME280;41154;45.394;5.734;2023-07-20T08:08:50;96871.53;;;34.11;38.57
55289;BME280;41154;45.394;5.734;2023-07-20T08:11:15;96865.72;;;35.23;38.06
55289;BME280;41154;45.394;5.734;2023-07-20T08:13:43;96863.28;;;34.90;38.55
55289;BME280;41154;45.394;5.734;2023-07-20T08:16:09;96861.34;;;34.87;38.97
55289;BME280;41154;45.394;5.734;2023-07-20T08:18:34;96870.69;;;33.61;40.31
55289;BME280;41154;45.394;5.734;2023-07-20T08:21:00;96866.63;;;32.41;42.60
55289;BME280;41154;45.394;5.734;2023-07-20T08:23:25;96865.72;;;33.13;41.16
55289;BME280;41154;45.394;5.734;2023-07-20T08:25:53;96864.66;;;33.74;41.13
55289;BME280;41154;45.394;5.734;2023-07-20T08:31:46;96866.94;;;34.46;38.37
55289;BME280;41154;45.394;5.734;2023-07-20T08:34:13;96866.69;;;29.92;45.56
55289;BME280;41154;45.394;5.734;2023-07-20T08:36:41;96864.84;;;30.10;44.94
55289;BME280;41154;45.394;5.734;2023-07-20T08:39:16;96861.41;;;31.75;43.53
55289;BME280;41154;45.394;5.734;2023-07-20T08:45:12;96858.97;;;33.03;40.87
55289;BME280;41154;45.394;5.734;2023-07-20T08:47:38;96854.34;;;33.67;38.37
55289;BME280;41154;45.394;5.734;2023-07-20T08:51:16;96849.16;;;32.66;40.68
55289;BME280;41154;45.394;5.734;2023-07-20T08:56:45;96837.84;;;31.11;43.25
55289;BME280;41154;45.394;5.734;2023-07-20T08:59:10;96835.69;;;32.57;41.10
55289;BME280;41154;45.394;5.734;2023-07-20T09:01:56;96841.09;;;33.15;40.63
55289;BME280;41154;45.394;5.734;2023-07-20T09:04:22;96838.81;;;32.81;40.16
55289;BME280;41154;45.394;5.734;2023-07-20T09:06:51;96830.13;;;31.78;41.74
55289;BME280;41154;45.394;5.734;2023-07-20T09:09:18;96831.72;;;31.83;41.22
55289;BME280;41154;45.394;5.734;2023-07-20T09:18:28;96812.72;;;32.24;42.51
55289;BME280;41154;45.394;5.734;2023-07-20T09:20:58;96811.50;;;31.79;42.84
55289;BME280;41154;45.394;5.734;2023-07-20T09:26:53;96808.72;;;31.71;42.99
55289;BME280;41154;45.394;5.734;2023-07-20T09:32:14;96804.69;;;34.18;38.01
55289;BME280;41154;45.394;5.734;2023-07-20T09:34:42;96803.09;;;34.17;39.01
55289;BME280;41154;45.394;5.734;2023-07-20T09:37:09;96805.59;;;32.23;42.46
55289;BME280;41154;45.394;5.734;2023-07-20T09:42:28;96798.81;;;28.89;52.74
55289;BME280;41154;45.394;5.734;2023-07-20T09:44:54;96804.63;;;28.54;51.06
55289;BME280;41154;45.394;5.734;2023-07-20T09:47:30;96803.34;;;28.74;51.74
55289;BME280;41154;45.394;5.734;2023-07-20T09:56:51;96799.75;;;27.93;52.04
55289;BME280;41154;45.394;5.734;2023-07-20T10:06:15;96782.97;;;27.56;53.25
55289;BME280;41154;45.394;5.734;2023-07-20T10:12:10;96772.84;;;27.60;54.31
55289;BME280;41154;45.394;5.734;2023-07-20T10:14:38;96771.72;;;27.22;55.75
55289;BME280;41154;45.394;5.734;2023-07-20T10:17:06;96767.59;;;27.55;54.13
55289;BME280;41154;45.394;5.734;2023-07-20T10:19:42;96761.63;;;28.22;52.03
55289;BME280;41154;45.394;5.734;2023-07-20T10:25:38;96758.22;;;28.06;52.24
55289;BME280;41154;45.394;5.734;2023-07-20T10:28:06;96752.69;;;26.94;56.51
55289;BME280;41154;45.394;5.734;2023-07-20T10:30:34;96752.53;;;27.49;54.85
55289;BME280;41154;45.394;5.734;2023-07-20T10:33:00;96746.47;;;26.97;54.52
55289;BME280;41154;45.394;5.734;2023-07-20T10:35:28;96745.09;;;27.30;54.83
55289;BME280;41154;45.394;5.734;2023-07-20T10:37:54;96747.72;;;26.80;55.37
55289;BME280;41154;45.394;5.734;2023-07-20T10:40:24;96745.91;;;26.87;56.41
55289;BME280;41154;45.394;5.734;2023-07-20T10:42:49;96744.97;;;27.42;57.29
55289;BME280;41154;45.394;5.734;2023-07-20T10:45:15;96741.56;;;28.25;52.81
55289;BME280;41154;45.394;5.734;2023-07-20T10:51:14;96747.66;;;27.19;57.21
55289;BME280;41154;45.394;5.734;2023-07-20T10:56:19;96749.56;;;27.34;54.60
55289;BME280;41154;45.394;5.734;2023-07-20T11:05:41;96733.03;;;27.34;53.94
55289;BME280;41154;45.394;5.734;2023-07-20T11:08:11;96729.59;;;27.41;56.96
55289;BME280;41154;45.394;5.734;2023-07-20T11:10:37;96729.50;;;27.84;54.23
55289;BME280;41154;45.394;5.734;2023-07-20T11:13:16;96734.75;;;27.92;52.52
55289;BME280;41154;45.394;5.734;2023-07-20T11:19:17;96712.53;;;27.32;53.67
55289;BME280;41154;45.394;5.734;2023-07-20T11:21:44;96725.03;;;27.29;54.59
55289;BME280;41154;45.394;5.734;2023-07-20T11:24:09;96723.78;;;27.03;55.58
55289;BME280;41154;45.394;5.734;2023-07-20T11:26:54;96714.34;;;27.47;54.43
55289;BME280;41154;45.394;5.734;2023-07-20T11:29:21;96714.94;;;27.83;53.04
55289;BME280;41154;45.394;5.734;2023-07-20T11:31:49;96712.97;;;27.84;55.96
55289;BME280;41154;45.394;5.734;2023-07-20T11:34:20;96708.91;;;27.74;54.85
55289;BME280;41154;45.394;5.734;2023-07-20T11:36:47;96702.63;;;27.77;55.67
55289;BME280;41154;45.394;5.734;2023-07-20T11:39:13;96701.91;;;27.80;54.95
55289;BME280;41154;45.394;5.734;2023-07-20T11:41:43;96698.66;;;27.74;54.17
55289;BME280;41154;45.394;5.734;2023-07-20T11:44:09;96701.91;;;27.80;54.95
55289;BME280;41154;45.394;5.734;2023-07-20T11:46:41;96697.75;;;27.67;55.27
55289;BME280;41154;45.394;5.734;2023-07-20T11:55:40;96684.63;;;26.90;56.99
55289;BME280;41154;45.394;5.734;2023-07-20T11:58:06;96677.81;;;27.50;54.98
55289;BME280;41154;45.394;5.734;2023-07-20T12:00:33;96679.50;;;27.32;55.48
55289;BME280;41154;45.394;5.734;2023-07-20T12:02:58;96680.00;;;26.95;56.33
55289;BME280;41154;45.394;5.734;2023-07-20T12:05:24;96679.25;;;27.67;58.58
55289;BME280;41154;45.394;5.734;2023-07-20T12:07:51;96680.38;;;27.16;55.99
55289;BME280;41154;45.394;5.734;2023-07-20T12:10:23;96661.78;;;26.67;57.26
55289;BME280;41154;45.394;5.734;2023-07-20T12:12:48;96670.75;;;27.06;57.56
55289;BME280;41154;45.394;5.734;2023-07-20T12:18:22;96665.72;;;26.89;56.45
55289;BME280;41154;45.394;5.734;2023-07-20T12:20:48;96656.63;;;27.08;55.20
55289;BME280;41154;45.394;5.734;2023-07-20T12:23:14;96661.53;;;27.41;57.01
55289;BME280;41154;45.394;5.734;2023-07-20T12:34:24;96646.81;;;27.84;55.89
55289;BME280;41154;45.394;5.734;2023-07-20T12:39:52;96648.03;;;27.59;55.56
55289;BME280;41154;45.394;5.734;2023-07-20T12:42:24;96641.41;;;27.64;54.81
55289;BME280;41154;45.394;5.734;2023-07-20T12:44:49;96639.25;;;27.04;56.18
55289;BME280;41154;45.394;5.734;2023-07-20T12:47:16;96642.25;;;27.18;56.55
55289;BME280;41154;45.394;5.734;2023-07-20T12:53:25;96644.56;;;27.39;57.03
55289;BME280;41154;45.394;5.734;2023-07-20T12:59:19;96635.88;;;26.91;55.42
55289;BME280;41154;45.394;5.734;2023-07-20T13:02:00;96637.59;;;26.76;55.66
55289;BME280;41154;45.394;5.734;2023-07-20T13:04:25;96632.19;;;27.30;55.12
55289;BME280;41154;45.394;5.734;2023-07-20T13:06:51;96634.69;;;27.12;55.18
55289;BME280;41154;45.394;5.734;2023-07-20T13:09:16;96630.50;;;27.21;54.98
55289;BME280;41154;45.394;5.734;2023-07-20T13:11:43;96631.97;;;27.15;55.25
55289;BME280;41154;45.394;5.734;2023-07-20T13:14:11;96630.91;;;27.47;55.85
55289;BME280;41154;45.394;5.734;2023-07-20T13:16:37;96621.22;;;27.56;54.66
55289;BME280;41154;45.394;5.734;2023-07-20T13:19:02;96623.69;;;27.61;53.11
55289;BME280;41154;45.394;5.734;2023-07-20T13:21:28;96616.78;;;27.48;55.25
55289;BME280;41154;45.394;5.734;2023-07-20T13:23:54;96612.16;;;27.56;53.86
55289;BME280;41154;45.394;5.734;2023-07-20T13:26:26;96608.69;;;27.59;54.27
55289;BME280;41154;45.394;5.734;2023-07-20T13:28:51;96602.53;;;27.69;52.31
55289;BME280;41154;45.394;5.734;2023-07-20T13:31:17;96602.34;;;27.85;53.08
55289;BME280;41154;45.394;5.734;2023-07-20T13:37:11;96606.81;;;27.67;53.48
55289;BME280;41154;45.394;5.734;2023-07-20T13:43:05;96593.66;;;27.30;55.19
55289;BME280;41154;45.394;5.734;2023-07-20T13:45:30;96590.38;;;27.47;53.37
55289;BME280;41154;45.394;5.734;2023-07-20T13:47:56;96589.22;;;27.48;54.24
55289;BME280;41154;45.394;5.734;2023-07-20T13:50:21;96578.31;;;27.29;54.16
55289;BME280;41154;45.394;5.734;2023-07-20T13:52:47;96578.72;;;27.31;53.65
55289;BME280;41154;45.394;5.734;2023-07-20T13:55:13;96580.28;;;27.55;53.15
55289;BME280;41154;45.394;5.734;2023-07-20T13:57:38;96583.19;;;27.39;53.06
55289;BME280;41154;45.394;5.734;2023-07-20T14:00:04;96574.50;;;27.64;52.54
55289;BME280;41154;45.394;5.734;2023-07-20T14:06:06;96566.22;;;27.10;52.72
55289;BME280;41154;45.394;5.734;2023-07-20T14:08:33;96566.28;;;27.40;54.63
55289;BME280;41154;45.394;5.734;2023-07-20T14:10:59;96564.84;;;27.50;52.67
55289;BME280;41154;45.394;5.734;2023-07-20T14:13:25;96563.13;;;27.38;52.25
55289;BME280;41154;45.394;5.734;2023-07-20T14:15:50;96560.47;;;27.46;52.45
55289;BME280;41154;45.394;5.734;2023-07-20T14:18:16;96557.63;;;27.69;51.29
55289;BME280;41154;45.394;5.734;2023-07-20T14:20:41;96556.84;;;27.68;52.11
55289;BME280;41154;45.394;5.734;2023-07-20T14:23:07;96554.19;;;27.75;52.32
55289;BME280;41154;45.394;5.734;2023-07-20T14:25:33;96552.19;;;27.72;51.30
55289;BME280;41154;45.394;5.734;2023-07-20T14:27:59;96550.78;;;27.86;50.75
55289;BME280;41154;45.394;5.734;2023-07-20T14:30:25;96542.94;;;27.57;52.33
55289;BME280;41154;45.394;5.734;2023-07-20T14:32:53;96549.25;;;27.08;51.61
55289;BME280;41154;45.394;5.734;2023-07-20T14:35:18;96545.25;;;27.29;51.41
55289;BME280;41154;45.394;5.734;2023-07-20T14:37:45;96543.94;;;27.46;51.36
55289;BME280;41154;45.394;5.734;2023-07-20T14:40:12;96530.66;;;27.51;51.63
55289;BME280;41154;45.394;5.734;2023-07-20T14:42:38;96538.06;;;27.77;50.51
55289;BME280;41154;45.394;5.734;2023-07-20T14:45:04;96538.72;;;27.67;51.39
55289;BME280;41154;45.394;5.734;2023-07-20T14:47:31;96537.47;;;27.61;51.37
55289;BME280;41154;45.394;5.734;2023-07-20T14:52:51;96540.78;;;28.04;48.92